createdAt,value
2023-04-16T00:00:31.508Z,8.32
2023-04-16T00:01:32.887Z,8.31
2023-04-16T00:02:34.419Z,8.28
2023-04-16T00:03:36.041Z,8.23
2023-04-16T00:04:37.844Z,8.22
2023-04-16T00:05:39.262Z,8.20
2023-04-16T00:06:40.555Z,8.21
2023-04-16T00:07:41.894Z,8.24
2023-04-16T00:08:43.448Z,8.19
2023-04-16T00:09:44.809Z,8.20
2023-04-16T00:10:46.131Z,8.19
2023-04-16T00:11:47.493Z,8.12
2023-04-16T00:12:48.889Z,8.09
2023-04-16T00:13:50.203Z,8.15
2023-04-16T00:14:51.517Z,8.12
2023-04-16T00:15:52.824Z,8.12
2023-04-16T00:16:54.188Z,8.12
2023-04-16T00:17:55.538Z,8.13
2023-04-16T00:18:56.970Z,8.12
2023-04-16T00:19:58.304Z,8.14
2023-04-16T00:20:59.722Z,8.17
2023-04-16T00:22:01.367Z,8.20
2023-04-16T00:23:02.821Z,8.20
2023-04-16T00:24:04.815Z,8.16
2023-04-16T00:25:09.243Z,8.07
2023-04-16T00:26:10.708Z,8.04
2023-04-16T00:27:14.228Z,8.09
2023-04-16T00:28:15.575Z,8.10
2023-04-16T00:29:16.876Z,8.15
2023-04-16T00:30:18.330Z,8.13
2023-04-16T00:31:30.128Z,8.13
2023-04-16T00:32:31.716Z,8.12
2023-04-16T00:33:33.252Z,8.11
2023-04-16T00:34:35.208Z,8.12
2023-04-16T00:35:36.609Z,8.13
2023-04-16T00:36:37.958Z,8.15
2023-04-16T00:37:39.726Z,8.19
2023-04-16T00:38:41.063Z,8.15
2023-04-16T00:39:42.662Z,8.12
2023-04-16T00:40:44.040Z,8.13
2023-04-16T00:41:45.946Z,8.12
2023-04-16T00:42:47.356Z,8.11
2023-04-16T00:43:49.589Z,8.12
2023-04-16T00:44:50.953Z,8.12
2023-04-16T00:45:53.695Z,8.14
2023-04-16T00:46:56.475Z,8.15
2023-04-16T00:48:00.440Z,8.10
2023-04-16T00:49:02.735Z,8.13
2023-04-16T00:50:04.867Z,8.03
2023-04-16T00:51:07.527Z,8.04
2023-04-16T00:52:11.405Z,8.05
2023-04-16T00:53:14.944Z,8.06
2023-04-16T00:54:16.304Z,8.02
2023-04-16T00:55:18.107Z,8.07
2023-04-16T00:56:21.213Z,8.08
2023-04-16T00:57:23.234Z,8.04
2023-04-16T00:58:25.346Z,8.05
2023-04-16T00:59:27.299Z,8.08
2023-04-16T01:00:28.851Z,8.08
2023-04-16T01:01:30.276Z,8.07
2023-04-16T01:02:33.140Z,8.10
2023-04-16T01:03:44.384Z,8.12
2023-04-16T01:04:45.843Z,8.15
2023-04-16T01:05:47.424Z,8.17
2023-04-16T01:06:49.105Z,8.15
2023-04-16T01:07:51.108Z,8.11
2023-04-16T01:08:52.708Z,8.10
2023-04-16T01:09:54.061Z,8.08
2023-04-16T01:10:55.405Z,8.08
2023-04-16T01:11:56.845Z,8.09
2023-04-16T01:12:58.248Z,8.11
2023-04-16T01:13:59.667Z,8.15
2023-04-16T01:15:01.110Z,8.13
2023-04-16T01:16:02.521Z,8.11
2023-04-16T01:17:04.140Z,8.09
2023-04-16T01:18:19.617Z,8.20
2023-04-16T01:19:21.209Z,8.16
2023-04-16T01:20:22.706Z,8.14
2023-04-16T01:21:24.305Z,8.14
2023-04-16T01:22:26.774Z,8.20
2023-04-16T01:23:28.414Z,8.18
2023-04-16T01:24:30.236Z,8.16
2023-04-16T01:25:31.523Z,8.09
2023-04-16T01:26:33.174Z,8.08
2023-04-16T01:27:34.662Z,8.04
2023-04-16T01:28:36.009Z,8.03
2023-04-16T01:29:37.381Z,8.04
2023-04-16T01:30:38.824Z,8.04
2023-04-16T01:31:51.610Z,8.08
2023-04-16T01:33:11.514Z,8.03
2023-04-16T01:34:12.888Z,7.99
2023-04-16T01:35:14.185Z,7.97
2023-04-16T01:36:15.540Z,7.97
2023-04-16T01:37:17.104Z,8.03
2023-04-16T01:38:18.495Z,8.04
2023-04-16T01:39:19.805Z,8.05
2023-04-16T01:40:21.253Z,8.05
2023-04-16T01:41:22.536Z,8.06
2023-04-16T01:42:23.904Z,8.10
2023-04-16T01:43:25.790Z,8.05
2023-04-16T01:44:27.176Z,8.02
2023-04-16T01:45:31.633Z,8.03
2023-04-16T01:46:34.938Z,8.04
2023-04-16T01:47:36.651Z,8.07
2023-04-16T01:48:38.083Z,8.07
2023-04-16T01:49:39.487Z,8.07
2023-04-16T01:50:41.636Z,8.11
2023-04-16T01:51:42.944Z,8.07
2023-04-16T01:52:44.978Z,8.09
2023-04-16T01:53:46.556Z,8.12
2023-04-16T01:54:47.880Z,8.14
2023-04-16T01:55:49.278Z,8.13
2023-04-16T01:56:50.602Z,8.19
2023-04-16T01:57:51.979Z,8.15
2023-04-16T01:58:55.098Z,8.12
2023-04-16T01:59:57.503Z,8.08
2023-04-16T02:00:59.173Z,8.07
2023-04-16T02:02:08.107Z,8.06
2023-04-16T02:03:09.925Z,8.15
2023-04-16T02:04:11.956Z,8.13
2023-04-16T02:05:13.806Z,8.08
2023-04-16T02:06:15.153Z,8.07
2023-04-16T02:07:16.418Z,8.07
2023-04-16T02:08:18.034Z,8.08
2023-04-16T02:09:19.344Z,8.10
2023-04-16T02:10:20.659Z,8.11
2023-04-16T02:11:22.267Z,8.11
2023-04-16T02:12:26.114Z,8.10
2023-04-16T02:13:27.428Z,8.11
2023-04-16T02:14:29.733Z,8.06
2023-04-16T02:15:31.056Z,8.08
2023-04-16T02:16:32.425Z,8.08
2023-04-16T02:17:46.340Z,8.09
2023-04-16T02:18:48.012Z,8.08
2023-04-16T02:19:51.000Z,8.01
2023-04-16T02:20:53.200Z,8.00
2023-04-16T02:21:55.304Z,8.01
2023-04-16T02:22:56.651Z,8.17
2023-04-16T02:23:58.803Z,8.14
2023-04-16T02:25:03.334Z,8.14
2023-04-16T02:26:05.322Z,8.14
2023-04-16T02:27:07.207Z,8.14
2023-04-16T02:28:11.932Z,8.09
2023-04-16T02:29:15.447Z,8.10
2023-04-16T02:30:21.414Z,8.09
2023-04-16T02:31:22.775Z,8.12
2023-04-16T02:32:24.194Z,8.14
2023-04-16T02:33:25.656Z,8.14
2023-04-16T02:34:38.073Z,8.11
2023-04-16T02:35:40.303Z,8.11
2023-04-16T02:36:42.292Z,8.13
2023-04-16T02:37:44.184Z,8.08
2023-04-16T02:38:45.596Z,8.13
2023-04-16T02:39:46.975Z,8.20
2023-04-16T02:40:48.532Z,8.20
2023-04-16T02:41:51.022Z,8.15
2023-04-16T02:42:53.491Z,8.15
2023-04-16T02:43:54.792Z,8.17
2023-04-16T02:44:56.100Z,8.10
2023-04-16T02:45:57.450Z,8.07
2023-04-16T02:46:58.797Z,8.10
2023-04-16T02:48:00.204Z,8.14
2023-04-16T02:49:01.748Z,8.12
2023-04-16T02:50:03.814Z,8.11
2023-04-16T02:51:05.706Z,8.14
2023-04-16T02:52:07.120Z,8.10
2023-04-16T02:53:08.511Z,8.12
2023-04-16T02:54:09.955Z,8.11
2023-04-16T02:55:11.673Z,8.12
2023-04-16T02:56:12.984Z,8.05
2023-04-16T02:57:14.281Z,8.04
2023-04-16T02:58:15.601Z,8.06
2023-04-16T02:59:16.931Z,8.14
2023-04-16T03:00:18.721Z,8.16
2023-04-16T03:01:20.196Z,8.13
2023-04-16T03:02:21.694Z,8.11
2023-04-16T03:03:23.208Z,8.09
2023-04-16T03:04:24.703Z,8.07
2023-04-16T03:05:26.137Z,8.10
2023-04-16T03:06:27.533Z,8.07
2023-04-16T03:07:28.925Z,8.10
2023-04-16T03:08:30.236Z,8.05
2023-04-16T03:09:31.601Z,8.08
2023-04-16T03:10:33.141Z,8.07
2023-04-16T03:11:34.466Z,8.05
2023-04-16T03:12:36.030Z,8.03
2023-04-16T03:13:41.356Z,8.10
2023-04-16T03:14:42.682Z,8.06
2023-04-16T03:15:51.136Z,8.07
2023-04-16T03:16:53.925Z,8.09
2023-04-16T03:17:55.266Z,8.11
2023-04-16T03:18:56.597Z,8.15
2023-04-16T03:19:57.960Z,8.12
2023-04-16T03:20:59.325Z,8.09
2023-04-16T03:22:00.676Z,8.04
2023-04-16T03:23:02.186Z,8.05
2023-04-16T03:24:03.474Z,7.99
2023-04-16T03:25:05.132Z,8.01
2023-04-16T03:26:06.471Z,8.05
2023-04-16T03:27:08.017Z,8.00
2023-04-16T03:28:09.359Z,7.98
2023-04-16T03:29:11.782Z,8.04
2023-04-16T03:30:14.290Z,8.09
2023-04-16T03:31:15.674Z,8.07
2023-04-16T03:32:17.287Z,7.99
2023-04-16T03:33:19.666Z,7.96
2023-04-16T03:34:20.957Z,7.98
2023-04-16T03:35:22.507Z,7.98
2023-04-16T03:36:23.826Z,8.01
2023-04-16T03:37:25.320Z,7.99
2023-04-16T03:38:26.912Z,7.97
2023-04-16T03:39:30.598Z,7.97
2023-04-16T03:40:31.944Z,7.95
2023-04-16T03:41:34.344Z,8.03
2023-04-16T03:42:37.379Z,8.07
2023-04-16T03:43:40.696Z,8.05
2023-04-16T03:44:42.333Z,8.05
2023-04-16T03:45:45.188Z,8.03
2023-04-16T03:46:47.130Z,7.99
2023-04-16T03:47:48.574Z,7.96
2023-04-16T03:48:49.955Z,7.97
2023-04-16T03:49:51.922Z,7.95
2023-04-16T03:50:53.999Z,7.96
2023-04-16T03:51:55.517Z,7.96
2023-04-16T03:52:56.800Z,7.94
2023-04-16T03:53:58.324Z,7.95
2023-04-16T03:55:00.567Z,7.98
2023-04-16T03:56:05.147Z,8.01
2023-04-16T03:57:06.564Z,8.00
2023-04-16T03:58:08.230Z,7.97
2023-04-16T03:59:09.981Z,7.95
2023-04-16T04:00:11.897Z,7.96
2023-04-16T04:01:15.910Z,7.97
2023-04-16T04:02:17.349Z,8.00
2023-04-16T04:03:19.064Z,8.02
2023-04-16T04:04:23.226Z,8.06
2023-04-16T04:05:24.634Z,8.08
2023-04-16T04:06:27.204Z,8.04
2023-04-16T04:07:28.542Z,7.97
2023-04-16T04:08:29.899Z,7.97
2023-04-16T04:09:31.314Z,8.01
2023-04-16T04:10:33.522Z,7.99
2023-04-16T04:11:35.223Z,8.00
2023-04-16T04:12:37.619Z,8.00
2023-04-16T04:13:38.996Z,7.96
2023-04-16T04:14:40.325Z,7.94
2023-04-16T04:15:42.142Z,7.97
2023-04-16T04:16:43.621Z,8.03
2023-04-16T04:17:45.085Z,8.03
2023-04-16T04:18:47.113Z,7.98
2023-04-16T04:20:00.475Z,7.95
2023-04-16T04:21:07.853Z,7.96
2023-04-16T04:22:09.280Z,7.91
2023-04-16T04:23:11.322Z,8.01
2023-04-16T04:24:12.684Z,7.97
2023-04-16T04:25:14.174Z,7.96
2023-04-16T04:26:16.182Z,7.89
2023-04-16T04:27:17.580Z,7.93
2023-04-16T04:28:18.968Z,8.02
2023-04-16T04:29:20.240Z,7.97
2023-04-16T04:30:24.455Z,7.95
2023-04-16T04:31:25.833Z,7.87
2023-04-16T04:32:27.242Z,7.87
2023-04-16T04:33:28.883Z,7.85
2023-04-16T04:34:30.295Z,7.93
2023-04-16T04:35:33.446Z,7.89
2023-04-16T04:36:35.245Z,7.92
2023-04-16T04:37:37.051Z,7.92
2023-04-16T04:38:46.835Z,7.94
2023-04-16T04:39:48.336Z,7.92
2023-04-16T04:40:49.697Z,7.98
2023-04-16T04:41:53.260Z,7.97
2023-04-16T04:42:54.909Z,8.01
2023-04-16T04:43:58.017Z,7.99
2023-04-16T04:44:59.908Z,8.02
2023-04-16T04:46:05.171Z,8.03
2023-04-16T04:47:06.911Z,8.00
2023-04-16T04:48:08.245Z,8.08
2023-04-16T04:49:09.714Z,8.04
2023-04-16T04:50:11.485Z,7.99
2023-04-16T04:51:13.117Z,7.97
2023-04-16T04:52:15.545Z,8.01
2023-04-16T04:53:17.081Z,7.99
2023-04-16T04:54:18.418Z,7.96
2023-04-16T04:55:19.837Z,7.97
2023-04-16T04:56:21.172Z,7.95
2023-04-16T04:57:23.014Z,7.96
2023-04-16T04:58:27.931Z,7.98
2023-04-16T04:59:29.328Z,7.94
2023-04-16T05:00:30.962Z,7.95
2023-04-16T05:01:32.475Z,7.95
2023-04-16T05:02:34.193Z,7.98
2023-04-16T05:03:35.668Z,7.98
2023-04-16T05:04:37.114Z,7.98
2023-04-16T05:05:41.635Z,7.96
2023-04-16T05:06:43.651Z,7.98
2023-04-16T05:07:44.986Z,8.01
2023-04-16T05:08:46.315Z,7.98
2023-04-16T05:09:47.664Z,7.97
2023-04-16T05:10:49.017Z,7.99
2023-04-16T05:11:50.378Z,8.00
2023-04-16T05:12:51.687Z,7.95
2023-04-16T05:13:52.969Z,7.97
2023-04-16T05:14:54.352Z,7.97
2023-04-16T05:15:55.646Z,8.00
2023-04-16T05:16:57.007Z,7.99
2023-04-16T05:17:58.395Z,8.01
2023-04-16T05:18:59.752Z,7.98
2023-04-16T05:20:01.138Z,7.94
2023-04-16T05:21:02.621Z,7.94
2023-04-16T05:22:03.976Z,7.97
2023-04-16T05:23:05.306Z,7.95
2023-04-16T05:24:06.632Z,7.97
2023-04-16T05:25:08.355Z,7.94
2023-04-16T05:26:09.659Z,7.94
2023-04-16T05:27:10.964Z,7.89
2023-04-16T05:28:12.276Z,7.92
2023-04-16T05:29:13.562Z,7.93
2023-04-16T05:30:14.916Z,7.96
2023-04-16T05:31:16.323Z,7.89
2023-04-16T05:32:17.699Z,7.95
2023-04-16T05:33:19.057Z,7.91
2023-04-16T05:34:20.336Z,7.91
2023-04-16T05:35:21.767Z,7.94
2023-04-16T05:36:23.180Z,7.96
2023-04-16T05:37:24.547Z,7.96
2023-04-16T05:38:25.916Z,7.93
2023-04-16T05:39:27.229Z,7.91
2023-04-16T05:40:28.571Z,7.94
2023-04-16T05:41:29.901Z,7.92
2023-04-16T05:42:31.278Z,7.89
2023-04-16T05:43:32.539Z,7.95
2023-04-16T05:44:33.880Z,7.92
2023-04-16T05:45:35.297Z,7.95
2023-04-16T05:46:36.600Z,7.98
2023-04-16T05:47:37.915Z,7.95
2023-04-16T05:48:39.316Z,7.94
2023-04-16T05:49:40.619Z,7.95
2023-04-16T05:50:41.937Z,7.95
2023-04-16T05:51:43.314Z,7.90
2023-04-16T05:52:44.655Z,7.92
2023-04-16T05:53:46.000Z,7.97
2023-04-16T05:54:47.328Z,7.91
2023-04-16T05:55:48.659Z,7.93
2023-04-16T05:56:49.990Z,7.92
2023-04-16T05:57:51.326Z,7.96
2023-04-16T05:58:52.670Z,7.94
2023-04-16T05:59:53.996Z,7.93
2023-04-16T06:00:55.449Z,7.93
2023-04-16T06:01:56.973Z,7.98
2023-04-16T06:02:58.666Z,7.99
2023-04-16T06:04:00.232Z,7.98
2023-04-16T06:05:01.801Z,7.97
2023-04-16T06:06:03.383Z,7.99
2023-04-16T06:07:04.858Z,8.03
2023-04-16T06:08:06.177Z,7.99
2023-04-16T06:09:07.648Z,8.04
2023-04-16T06:10:09.631Z,8.05
2023-04-16T06:11:10.999Z,8.00
2023-04-16T06:12:12.536Z,8.02
2023-04-16T06:13:14.138Z,8.03
2023-04-16T06:14:15.474Z,8.04
2023-04-16T06:15:16.864Z,8.03
2023-04-16T06:16:31.220Z,8.00
2023-04-16T06:17:32.611Z,7.99
2023-04-16T06:18:34.033Z,8.04
2023-04-16T06:19:35.416Z,8.05
2023-04-16T06:20:36.802Z,8.06
2023-04-16T06:21:38.212Z,8.12
2023-04-16T06:22:39.666Z,8.14
2023-04-16T06:23:41.056Z,8.10
2023-04-16T06:24:42.454Z,8.13
2023-04-16T06:25:43.787Z,8.17
2023-04-16T06:26:45.233Z,8.23
2023-04-16T06:27:46.597Z,8.22
2023-04-16T06:28:48.143Z,8.16
2023-04-16T06:29:49.430Z,8.20
2023-04-16T06:30:50.817Z,8.20
2023-04-16T06:31:52.220Z,8.19
2023-04-16T06:32:53.742Z,8.22
2023-04-16T06:33:55.092Z,8.24
2023-04-16T06:34:56.688Z,8.20
2023-04-16T06:35:58.169Z,8.24
2023-04-16T06:36:59.515Z,8.25
2023-04-16T06:38:00.914Z,8.23
2023-04-16T06:39:02.263Z,8.23
2023-04-16T06:40:04.639Z,8.24
2023-04-16T06:41:06.002Z,8.20
2023-04-16T06:42:07.349Z,8.19
2023-04-16T06:43:08.711Z,8.26
2023-04-16T06:44:10.056Z,8.27
2023-04-16T06:45:12.234Z,8.26
2023-04-16T06:46:13.605Z,8.26
2023-04-16T06:47:15.825Z,8.25
2023-04-16T06:48:17.117Z,8.24
2023-04-16T06:49:18.561Z,8.22
2023-04-16T06:50:20.123Z,8.28
2023-04-16T06:51:21.540Z,8.25
2023-04-16T06:52:22.887Z,8.26
2023-04-16T06:53:24.605Z,8.27
2023-04-16T06:54:26.155Z,8.28
2023-04-16T06:55:30.426Z,8.29
2023-04-16T06:56:31.765Z,8.27
2023-04-16T06:57:34.685Z,8.27
2023-04-16T06:58:37.150Z,8.28
2023-04-16T06:59:38.738Z,8.23
2023-04-16T07:00:42.483Z,8.29
2023-04-16T07:01:43.995Z,8.24
2023-04-16T07:02:45.561Z,8.25
2023-04-16T07:03:47.211Z,8.28
2023-04-16T07:04:49.961Z,8.28
2023-04-16T07:05:51.296Z,8.30
2023-04-16T07:06:52.621Z,8.30
2023-04-16T07:07:54.016Z,8.31
2023-04-16T07:08:56.939Z,8.30
2023-04-16T07:09:59.072Z,8.33
2023-04-16T07:11:00.430Z,8.34
2023-04-16T07:12:01.925Z,8.35
2023-04-16T07:13:03.294Z,8.37
2023-04-16T07:14:04.960Z,8.34
2023-04-16T07:15:09.967Z,8.34
2023-04-16T07:16:11.768Z,8.36
2023-04-16T07:17:13.398Z,8.42
2023-04-16T07:18:14.825Z,8.44
2023-04-16T07:19:16.180Z,8.42
2023-04-16T07:20:17.567Z,8.46
2023-04-16T07:21:19.005Z,8.47
2023-04-16T07:22:21.305Z,8.47
2023-04-16T07:23:22.878Z,8.50
2023-04-16T07:24:24.241Z,8.49
2023-04-16T07:25:25.559Z,8.55
2023-04-16T07:26:26.900Z,8.56
2023-04-16T07:27:28.305Z,8.56
2023-04-16T07:28:29.620Z,8.56
2023-04-16T07:29:30.929Z,8.49
2023-04-16T07:30:32.375Z,8.51
2023-04-16T07:31:33.775Z,8.52
2023-04-16T07:32:35.345Z,8.41
2023-04-16T07:33:36.807Z,8.54
2023-04-16T07:34:38.096Z,8.53
2023-04-16T07:35:39.433Z,8.51
2023-04-16T07:36:40.974Z,8.52
2023-04-16T07:37:42.313Z,8.44
2023-04-16T07:38:43.647Z,8.50
2023-04-16T07:39:45.001Z,8.52
2023-04-16T07:40:46.303Z,8.54
2023-04-16T07:41:47.659Z,8.57
2023-04-16T07:42:49.049Z,8.63
2023-04-16T07:43:50.384Z,8.62
2023-04-16T07:44:51.721Z,8.66
2023-04-16T07:45:53.100Z,8.63
2023-04-16T07:46:54.606Z,8.66
2023-04-16T07:47:56.062Z,8.65
2023-04-16T07:48:57.392Z,8.65
2023-04-16T07:49:58.722Z,8.62
2023-04-16T07:51:00.109Z,8.70
2023-04-16T07:52:01.817Z,8.69
2023-04-16T07:53:03.199Z,8.64
2023-04-16T07:54:04.543Z,8.73
2023-04-16T07:55:06.224Z,8.63
2023-04-16T07:56:07.852Z,8.63
2023-04-16T07:57:09.211Z,8.65
2023-04-16T07:58:10.675Z,8.65
2023-04-16T07:59:22.079Z,8.71
2023-04-16T08:00:25.074Z,8.69
2023-04-16T08:01:26.819Z,8.64
2023-04-16T08:02:28.243Z,8.72
2023-04-16T08:03:29.881Z,8.71
2023-04-16T08:04:31.760Z,8.70
2023-04-16T08:05:33.309Z,8.69
2023-04-16T08:06:34.679Z,8.74
2023-04-16T08:07:36.309Z,8.78
2023-04-16T08:08:37.640Z,8.81
2023-04-16T08:09:53.706Z,8.90
2023-04-16T08:10:55.153Z,8.84
2023-04-16T08:11:56.557Z,8.84
2023-04-16T08:12:59.968Z,8.81
2023-04-16T08:14:01.301Z,8.83
2023-04-16T08:15:02.658Z,8.90
2023-04-16T08:16:04.220Z,8.88
2023-04-16T08:17:05.749Z,8.84
2023-04-16T08:18:07.104Z,8.88
2023-04-16T08:19:08.690Z,8.91
2023-04-16T08:20:15.033Z,8.83
2023-04-16T08:21:18.321Z,8.80
2023-04-16T08:22:27.960Z,8.81
2023-04-16T08:23:38.811Z,8.87
2023-04-16T08:24:40.276Z,8.85
2023-04-16T08:25:41.797Z,8.84
2023-04-16T08:26:43.221Z,8.83
2023-04-16T08:27:44.606Z,8.84
2023-04-16T08:28:45.937Z,8.91
2023-04-16T08:29:47.776Z,8.96
2023-04-16T08:30:49.274Z,8.96
2023-04-16T08:31:50.701Z,9.04
2023-04-16T08:32:52.575Z,9.02
2023-04-16T08:33:53.937Z,8.96
2023-04-16T08:34:55.403Z,8.98
2023-04-16T08:35:56.754Z,8.88
2023-04-16T08:36:58.184Z,8.85
2023-04-16T08:38:01.058Z,8.81
2023-04-16T08:39:06.656Z,8.88
2023-04-16T08:40:08.550Z,8.89
2023-04-16T08:41:13.349Z,8.85
2023-04-16T08:42:31.582Z,8.85
2023-04-16T08:43:35.923Z,8.86
2023-04-16T08:44:43.674Z,8.87
2023-04-16T08:45:47.523Z,8.91
2023-04-16T08:46:51.715Z,8.91
2023-04-16T08:47:56.591Z,8.98
2023-04-16T08:48:59.673Z,9.03
2023-04-16T08:50:05.393Z,9.02
2023-04-16T08:51:10.181Z,9.03
2023-04-16T08:52:18.372Z,9.05
2023-04-16T08:53:24.649Z,9.09
2023-04-16T08:54:34.763Z,9.03
2023-04-16T08:55:39.267Z,8.90
2023-04-16T08:56:43.166Z,8.99
2023-04-16T08:57:48.664Z,9.02
2023-04-16T08:58:52.887Z,9.04
2023-04-16T08:59:55.624Z,9.05
2023-04-16T09:00:57.332Z,9.07
2023-04-16T09:01:59.183Z,9.09
2023-04-16T09:03:00.940Z,9.13
2023-04-16T09:04:03.521Z,9.09
2023-04-16T09:05:07.043Z,9.14
2023-04-16T09:06:09.725Z,9.22
2023-04-16T09:07:11.307Z,9.19
2023-04-16T09:08:12.812Z,9.18
2023-04-16T09:09:16.070Z,9.22
2023-04-16T09:10:17.996Z,9.25
2023-04-16T09:11:22.472Z,9.25
2023-04-16T09:12:23.959Z,9.31
2023-04-16T09:13:25.594Z,9.23
2023-04-16T09:14:27.044Z,9.23
2023-04-16T09:15:28.359Z,9.23
2023-04-16T09:16:33.641Z,9.23
2023-04-16T09:17:35.176Z,9.27
2023-04-16T09:18:36.613Z,9.29
2023-04-16T09:19:37.964Z,9.26
2023-04-16T09:20:39.653Z,9.19
2023-04-16T09:21:42.724Z,9.20
2023-04-16T09:22:44.529Z,9.17
2023-04-16T09:23:47.108Z,9.25
2023-04-16T09:24:48.427Z,9.21
2023-04-16T09:25:49.769Z,9.27
2023-04-16T09:26:54.770Z,9.34
2023-04-16T09:27:56.552Z,9.37
2023-04-16T09:28:57.866Z,9.44
2023-04-16T09:29:59.209Z,9.45
2023-04-16T09:31:14.821Z,9.51
2023-04-16T09:32:16.398Z,9.58
2023-04-16T09:33:19.577Z,9.48
2023-04-16T09:34:20.929Z,9.44
2023-04-16T09:35:22.586Z,9.44
2023-04-16T09:36:24.185Z,9.45
2023-04-16T09:37:27.524Z,9.44
2023-04-16T09:38:56.235Z,9.43
2023-04-16T09:40:03.653Z,9.48
2023-04-16T09:41:08.553Z,9.45
2023-04-16T09:42:10.897Z,9.45
2023-04-16T09:43:14.536Z,9.31
2023-04-16T09:44:15.869Z,9.36
2023-04-16T09:45:17.174Z,9.46
2023-04-16T09:46:18.624Z,9.47
2023-04-16T09:47:20.971Z,9.44
2023-04-16T09:48:32.036Z,9.37
2023-04-16T09:49:41.689Z,9.36
2023-04-16T09:50:52.109Z,9.33
2023-04-16T09:51:54.322Z,9.32
2023-04-16T09:52:55.704Z,9.30
2023-04-16T09:53:57.138Z,9.29
2023-04-16T09:54:59.773Z,9.32
2023-04-16T09:56:03.304Z,9.33
2023-04-16T09:57:05.485Z,9.31
2023-04-16T09:58:06.811Z,9.34
2023-04-16T09:59:09.269Z,9.36
2023-04-16T10:00:11.482Z,9.37
2023-04-16T10:01:13.068Z,9.43
2023-04-16T10:02:16.021Z,9.41
2023-04-16T10:03:17.885Z,9.40
2023-04-16T10:04:19.462Z,9.40
2023-04-16T10:05:20.854Z,9.39
2023-04-16T10:06:23.592Z,9.42
2023-04-16T10:07:29.534Z,9.44
2023-04-16T10:08:30.872Z,9.51
2023-04-16T10:09:36.953Z,9.52
2023-04-16T10:10:38.477Z,9.54
2023-04-16T10:11:40.136Z,9.47
2023-04-16T10:12:41.537Z,9.51
2023-04-16T10:13:42.976Z,9.52
2023-04-16T10:14:45.298Z,9.56
2023-04-16T10:15:47.093Z,9.57
2023-04-16T10:16:48.556Z,9.62
2023-04-16T10:17:50.959Z,9.59
2023-04-16T10:18:53.079Z,9.61
2023-04-16T10:19:55.180Z,9.60
2023-04-16T10:20:57.341Z,9.52
2023-04-16T10:21:59.430Z,9.57
2023-04-16T10:23:02.032Z,9.55
2023-04-16T10:24:04.182Z,9.60
2023-04-16T10:25:07.360Z,9.57
2023-04-16T10:26:09.011Z,9.50
2023-04-16T10:27:10.470Z,9.44
2023-04-16T10:28:14.776Z,9.45
2023-04-16T10:29:16.514Z,9.47
2023-04-16T10:30:18.653Z,9.55
2023-04-16T10:31:20.289Z,9.64
2023-04-16T10:32:22.502Z,9.59
2023-04-16T10:33:32.601Z,9.60
2023-04-16T10:34:35.020Z,9.61
2023-04-16T10:35:40.245Z,9.56
2023-04-16T10:36:42.112Z,9.53
2023-04-16T10:37:43.487Z,9.53
2023-04-16T10:38:52.309Z,9.56
2023-04-16T10:39:53.668Z,9.56
2023-04-16T10:41:05.435Z,9.55
2023-04-16T10:42:12.034Z,9.51
2023-04-16T10:43:17.868Z,9.54
2023-04-16T10:44:19.484Z,9.54
2023-04-16T10:45:26.561Z,9.53
2023-04-16T10:46:33.364Z,9.56
2023-04-16T10:47:39.908Z,9.53
2023-04-16T10:48:49.951Z,9.53
2023-04-16T10:49:51.924Z,9.63
2023-04-16T10:50:57.654Z,9.63
2023-04-16T10:52:00.884Z,9.55
2023-04-16T10:53:28.483Z,9.52
2023-04-16T10:54:31.090Z,9.51
2023-04-16T10:55:32.505Z,9.58
2023-04-16T10:56:35.446Z,9.57
2023-04-16T10:57:36.720Z,9.56
2023-04-16T10:58:38.456Z,9.63
2023-04-16T10:59:42.951Z,9.66
2023-04-16T11:00:51.900Z,9.64
2023-04-16T11:01:59.227Z,9.60
2023-04-16T11:03:00.748Z,9.66
2023-04-16T11:04:24.951Z,9.71
2023-04-16T11:05:45.161Z,9.63
2023-04-16T11:07:12.226Z,9.51
2023-04-16T11:08:14.289Z,9.57
2023-04-16T11:09:49.752Z,9.60
2023-04-16T11:10:51.662Z,9.58
2023-04-16T11:11:56.303Z,9.53
2023-04-16T11:12:58.300Z,9.45
2023-04-16T11:14:00.149Z,9.49
2023-04-16T11:15:06.247Z,9.51
2023-04-16T11:16:07.701Z,9.50
2023-04-16T11:17:09.636Z,9.60
2023-04-16T11:18:11.077Z,9.68
2023-04-16T11:19:18.582Z,9.57
2023-04-16T11:20:24.171Z,9.54
2023-04-16T11:21:26.180Z,9.44
2023-04-16T11:22:27.894Z,9.42
2023-04-16T11:23:29.323Z,9.44
2023-04-16T11:24:31.868Z,9.49
2023-04-16T11:25:33.286Z,9.55
2023-04-16T11:26:34.756Z,9.56
2023-04-16T11:27:36.093Z,9.56
2023-04-16T11:28:37.437Z,9.57
2023-04-16T11:29:38.791Z,9.58
2023-04-16T11:30:40.114Z,9.66
2023-04-16T11:31:41.542Z,9.64
2023-04-16T11:32:44.429Z,9.55
2023-04-16T11:33:45.933Z,9.58
2023-04-16T11:34:47.390Z,9.56
2023-04-16T11:35:56.539Z,9.47
2023-04-16T11:36:57.977Z,9.47
2023-04-16T11:37:59.384Z,9.44
2023-04-16T11:39:02.321Z,9.39
2023-04-16T11:40:05.871Z,9.42
2023-04-16T11:41:07.330Z,9.35
2023-04-16T11:42:08.744Z,9.41
2023-04-16T11:43:14.957Z,9.47
2023-04-16T11:44:18.045Z,9.47
2023-04-16T11:45:19.478Z,9.49
2023-04-16T11:46:27.378Z,9.55
2023-04-16T11:47:30.750Z,9.60
2023-04-16T11:48:49.202Z,9.63
2023-04-16T11:49:51.108Z,9.61
2023-04-16T11:50:58.966Z,9.54
2023-04-16T11:52:00.472Z,9.55
2023-04-16T11:53:05.504Z,9.63
2023-04-16T11:54:09.123Z,9.60
2023-04-16T11:55:12.745Z,9.61
2023-04-16T11:56:25.149Z,9.58
2023-04-16T11:57:31.256Z,9.59
2023-04-16T11:58:32.618Z,9.56
2023-04-16T11:59:34.646Z,9.57
2023-04-16T12:00:36.037Z,9.58
2023-04-16T12:01:38.773Z,9.60
2023-04-16T12:02:43.013Z,9.63
2023-04-16T12:03:46.777Z,9.64
2023-04-16T12:04:48.546Z,9.69
2023-04-16T12:05:49.952Z,9.69
2023-04-16T12:07:13.082Z,9.71
2023-04-16T12:08:29.432Z,9.69
2023-04-16T12:09:30.729Z,9.68
2023-04-16T12:10:34.336Z,9.64
2023-04-16T12:11:42.477Z,9.59
2023-04-16T12:12:43.961Z,9.66
2023-04-16T12:14:11.273Z,9.69
2023-04-16T12:15:12.662Z,9.68
2023-04-16T12:16:20.097Z,9.64
2023-04-16T12:17:21.467Z,9.62
2023-04-16T12:18:24.375Z,9.67
2023-04-16T12:19:28.283Z,9.58
2023-04-16T12:20:39.892Z,9.67
2023-04-16T12:21:46.612Z,9.62
2023-04-16T12:22:48.988Z,9.56
2023-04-16T12:23:53.572Z,9.62
2023-04-16T12:24:59.805Z,9.68
2023-04-16T12:26:08.120Z,9.70
2023-04-16T12:27:09.441Z,9.69
2023-04-16T12:28:10.828Z,9.70
2023-04-16T12:29:25.547Z,9.66
2023-04-16T12:30:27.549Z,9.63
2023-04-16T12:31:37.935Z,9.64
2023-04-16T12:32:41.406Z,9.64
2023-04-16T12:33:43.060Z,9.64
2023-04-16T12:34:50.859Z,9.67
2023-04-16T12:35:52.335Z,9.67
2023-04-16T12:37:07.070Z,9.74
2023-04-16T12:38:08.608Z,9.66
2023-04-16T12:39:10.808Z,9.65
2023-04-16T12:40:12.363Z,9.65
2023-04-16T12:41:13.701Z,9.59
2023-04-16T12:42:15.133Z,9.56
2023-04-16T12:43:16.553Z,9.60
2023-04-16T12:44:17.932Z,9.61
2023-04-16T12:45:19.326Z,9.64
2023-04-16T12:46:20.714Z,9.67
2023-04-16T12:47:22.357Z,9.67
2023-04-16T12:48:23.715Z,9.66
2023-04-16T12:49:25.057Z,9.67
2023-04-16T12:50:26.523Z,9.69
2023-04-16T12:51:27.961Z,9.72
2023-04-16T12:52:29.423Z,9.65
2023-04-16T12:53:30.872Z,9.63
2023-04-16T12:54:32.326Z,9.68
2023-04-16T12:55:33.783Z,9.77
2023-04-16T12:56:35.758Z,9.76
2023-04-16T12:57:37.125Z,9.74
2023-04-16T12:58:38.405Z,9.72
2023-04-16T12:59:39.958Z,9.69
2023-04-16T13:00:41.567Z,9.65
2023-04-16T13:01:44.633Z,9.71
2023-04-16T13:02:46.655Z,9.73
2023-04-16T13:03:48.790Z,9.79
2023-04-16T13:04:56.286Z,9.78
2023-04-16T13:05:57.775Z,9.75
2023-04-16T13:06:59.666Z,9.71
2023-04-16T13:08:01.071Z,9.70
2023-04-16T13:09:02.486Z,9.72
2023-04-16T13:10:05.705Z,9.68
2023-04-16T13:11:08.240Z,9.73
2023-04-16T13:12:09.784Z,9.80
2023-04-16T13:13:11.116Z,9.77
2023-04-16T13:14:12.714Z,9.76
2023-04-16T13:15:14.174Z,9.86
2023-04-16T13:16:15.624Z,9.81
2023-04-16T13:17:20.517Z,9.79
2023-04-16T13:18:22.246Z,9.76
2023-04-16T13:19:23.595Z,9.89
2023-04-16T13:20:24.953Z,9.83
2023-04-16T13:21:26.396Z,9.77
2023-04-16T13:22:28.302Z,9.80
2023-04-16T13:23:29.727Z,9.81
2023-04-16T13:24:31.085Z,9.84
2023-04-16T13:25:32.422Z,9.86
2023-04-16T13:26:33.839Z,9.85
2023-04-16T13:27:35.197Z,9.88
2023-04-16T13:28:36.499Z,9.99
2023-04-16T13:29:37.835Z,10.05
2023-04-16T13:30:39.293Z,10.09
2023-04-16T13:31:40.727Z,10.08
2023-04-16T13:32:42.071Z,10.08
2023-04-16T13:33:43.413Z,10.01
2023-04-16T13:34:44.818Z,10.01
2023-04-16T13:35:47.524Z,10.03
2023-04-16T13:36:48.923Z,10.05
2023-04-16T13:37:50.534Z,10.10
2023-04-16T13:38:51.843Z,10.13
2023-04-16T13:39:53.191Z,10.10
2023-04-16T13:40:54.510Z,10.01
2023-04-16T13:41:56.012Z,10.02
2023-04-16T13:42:57.329Z,10.03
2023-04-16T13:43:58.713Z,10.02
2023-04-16T13:45:00.210Z,9.95
2023-04-16T13:46:01.719Z,9.98
2023-04-16T13:47:03.239Z,9.88
2023-04-16T13:48:05.050Z,9.77
2023-04-16T13:49:06.649Z,9.79
2023-04-16T13:50:08.477Z,9.76
2023-04-16T13:51:09.779Z,9.75
2023-04-16T13:52:11.146Z,9.79
2023-04-16T13:53:12.554Z,9.83
2023-04-16T13:54:13.854Z,9.80